Terminal Aerodrome Forecast
Issued by NWS

Home | Current Version | Previous Version | Text Only | Print | Product List | Glossary On
Versions: 1 2 3 4 5 6 7 8 9 10 11 12 13 14 15 16 17 18 19
000
FTUS43 KJKL 240500
TAFSME
TAF
KSME 240528Z 2406/2506 03004KT 5SM -SN BR OVC005
     FM240700 33005KT 2SM -SN BR OVC005
     FM241000 32006KT 3SM -SN BR OVC015
     FM241200 30006KT P6SM BKN025=

USA.gov is the U.S. government's official web portal to all federal, state and local government web resources and services.